Time;durP1;ratioP1;P1;durP2;ratioP2;P2;SDS_P1;SDS_P2;PMS_P1;PMS_P2;Temp;Humidity;BMP_temperature;BMP_pressure;BME280_temperature;BME280_humidity;BME280_pressure;Samples;Min_cycle;Max_cycle;Signal;HPM_P1;HPM_P2
2023/01/04 00:01:29;;;;;;;14.87;0.65;;;4.50;99.90;;;;;;4440511;32;20433;-65
2023/01/04 00:03:54;;;;;;;3.40;1.62;;;4.60;99.90;;;;;;4441185;32;20081;-65
2023/01/04 00:06:20;;;;;;;0.30;0.30;;;4.60;99.90;;;;;;4446766;32;20085;-65
2023/01/04 00:08:45;;;;;;;0.85;0.85;;;4.60;99.90;;;;;;4445935;32;20782;-65
2023/01/04 00:11:14;;;;;;;0.65;0.62;;;4.70;99.90;;;;;;4435074;32;20085;-65
2023/01/04 00:13:39;;;;;;;0.70;0.70;;;4.60;99.90;;;;;;4429772;32;20308;-64
2023/01/04 00:16:07;;;;;;;2.05;1.65;;;4.70;99.90;;;;;;4438099;32;20069;-65
2023/01/04 00:18:34;;;;;;;3.47;1.05;;;4.80;99.90;;;;;;4438757;32;20516;-64
2023/01/04 00:21:08;;;;;;;1.55;1.23;;;4.80;99.90;;;;;;4441856;32;20061;-65
2023/01/04 00:23:34;;;;;;;0.40;0.40;;;4.80;99.90;;;;;;4442122;32;20101;-64
2023/01/04 00:26:00;;;;;;;0.40;0.40;;;4.90;99.90;;;;;;4443457;32;20532;-65
2023/01/04 00:28:25;;;;;;;23.50;1.95;;;5.00;99.90;;;;;;4444148;32;20053;-65
2023/01/04 00:30:51;;;;;;;3.50;1.35;;;5.00;99.90;;;;;;4440113;32;20097;-65
2023/01/04 00:33:16;;;;;;;0.40;0.40;;;4.90;99.90;;;;;;4440088;32;20089;-65
2023/01/04 00:35:42;;;;;;;1.17;0.75;;;5.10;99.90;;;;;;4441716;32;20082;-65
2023/01/04 00:38:08;;;;;;;0.70;0.70;;;4.90;99.90;;;;;;4443285;32;20569;-65
2023/01/04 00:40:33;;;;;;;0.52;0.52;;;4.90;99.90;;;;;;4436031;32;20103;-64
2023/01/04 00:42:59;;;;;;;0.50;0.50;;;4.90;99.90;;;;;;4428089;32;21178;-65
2023/01/04 00:45:24;;;;;;;0.50;0.50;;;4.80;99.90;;;;;;4436978;32;20096;-64
2023/01/04 00:47:50;;;;;;;0.40;0.40;;;4.80;99.90;;;;;;4444610;32;20077;-64
2023/01/04 00:50:15;;;;;;;0.62;0.62;;;4.80;99.90;;;;;;4443325;32;20505;-65
2023/01/04 00:52:40;;;;;;;0.80;0.80;;;4.80;99.90;;;;;;4444694;32;20053;-65
2023/01/04 00:55:06;;;;;;;0.60;0.60;;;4.90;99.90;;;;;;4444295;32;20097;-65
2023/01/04 00:57:32;;;;;;;0.77;0.77;;;4.90;99.90;;;;;;4442884;32;20085;-65
2023/01/04 00:59:57;;;;;;;0.50;0.50;;;4.90;99.90;;;;;;4447135;32;20101;-65
2023/01/04 01:02:23;;;;;;;0.50;0.50;;;4.90;99.90;;;;;;4443083;32;20400;-65
2023/01/04 01:04:48;;;;;;;0.50;0.50;;;4.80;99.90;;;;;;4442907;32;20541;-64
2023/01/04 01:07:14;;;;;;;0.55;0.55;;;4.80;99.90;;;;;;4443406;32;20097;-64
2023/01/04 01:09:39;;;;;;;1.17;0.80;;;4.90;99.90;;;;;;4440633;32;20120;-64
2023/01/04 01:12:04;;;;;;;0.50;0.50;;;5.00;99.90;;;;;;4427469;32;20084;-64
2023/01/04 01:14:30;;;;;;;0.68;0.68;;;5.00;99.90;;;;;;4431684;32;20074;-64
2023/01/04 01:16:55;;;;;;;0.52;0.52;;;4.90;99.90;;;;;;4442369;32;20310;-65
2023/01/04 01:19:21;;;;;;;0.32;0.32;;;4.90;99.90;;;;;;4443397;32;20056;-64
2023/01/04 01:21:46;;;;;;;1.02;0.98;;;5.00;99.90;;;;;;4443701;32;20077;-64
2023/01/04 01:24:16;;;;;;;0.35;0.35;;;5.00;99.90;;;;;;4442746;32;20150;-65
2023/01/04 01:26:41;;;;;;;0.40;0.40;;;5.00;99.90;;;;;;4443267;32;20057;-64
2023/01/04 01:29:07;;;;;;;0.60;0.60;;;5.00;99.90;;;;;;4447764;32;20060;-64
2023/01/04 01:31:32;;;;;;;0.85;0.73;;;5.00;99.90;;;;;;4443764;32;20069;-65
2023/01/04 01:33:57;;;;;;;0.40;0.40;;;5.00;99.90;;;;;;4442582;32;20110;-64
2023/01/04 01:36:25;;;;;;;0.43;0.43;;;5.00;99.90;;;;;;4443287;32;20074;-64
2023/01/04 01:38:51;;;;;;;1.85;1.05;;;5.00;99.90;;;;;;4441491;32;20500;-64
2023/01/04 01:41:19;;;;;;;0.40;0.40;;;5.00;99.90;;;;;;4433950;32;20089;-64
2023/01/04 01:44:24;;;;;;;0.30;0.30;;;5.00;99.90;;;;;;4427630;32;20073;-64
2023/01/04 01:46:52;;;;;;;1.42;0.93;;;4.90;99.90;;;;;;4440418;32;20081;-64
2023/01/04 01:49:31;;;;;;;0.50;0.50;;;4.90;99.90;;;;;;4442937;32;20068;-64
2023/01/04 01:52:00;;;;;;;0.73;0.73;;;4.90;99.90;;;;;;4441631;32;20092;-64
2023/01/04 01:54:30;;;;;;;2.75;1.90;;;4.80;99.90;;;;;;4442153;32;20077;-64
2023/01/04 01:56:58;;;;;;;2.65;1.33;;;4.80;99.90;;;;;;4443195;32;20152;-64
2023/01/04 01:59:24;;;;;;;0.60;0.60;;;4.80;99.90;;;;;;4444186;32;20073;-64
2023/01/04 02:01:50;;;;;;;0.52;0.52;;;4.80;99.90;;;;;;4440069;32;20549;-64
2023/01/04 02:04:16;;;;;;;0.40;0.40;;;4.70;99.90;;;;;;4443167;32;20112;-64
2023/01/04 02:06:47;;;;;;;0.37;0.37;;;4.80;99.90;;;;;;4441063;32;20604;-64
2023/01/04 02:09:13;;;;;;;0.30;0.30;;;4.70;99.90;;;;;;4442598;32;20824;-64
2023/01/04 02:11:39;;;;;;;0.50;0.50;;;4.70;99.90;;;;;;4426641;32;20056;-64
2023/01/04 02:14:38;;;;;;;0.52;0.52;;;4.60;99.90;;;;;;4425640;32;20112;-64
2023/01/04 02:17:19;;;;;;;0.40;0.40;;;4.60;99.90;;;;;;4443429;32;20065;-64
2023/01/04 02:20:03;;;;;;;0.55;0.55;;;4.70;99.90;;;;;;4440720;32;20065;-65
2023/01/04 02:22:50;;;;;;;0.43;0.43;;;4.70;99.90;;;;;;4442295;32;20069;-65
2023/01/04 02:25:53;;;;;;;1.65;1.00;;;4.70;99.90;;;;;;4440875;32;20564;-64
2023/01/04 02:28:50;;;;;;;1.02;1.00;;;4.70;99.90;;;;;;4438154;32;20101;-64
2023/01/04 02:31:39;;;;;;;0.47;0.47;;;4.60;99.90;;;;;;4440351;32;20132;-64
2023/01/04 02:34:22;;;;;;;0.40;0.40;;;4.70;99.90;;;;;;4440363;32;20431;-64
2023/01/04 02:36:58;;;;;;;0.60;0.60;;;4.70;99.90;;;;;;4441798;32;20072;-64
2023/01/04 02:39:42;;;;;;;0.47;0.47;;;4.60;99.90;;;;;;4442440;32;20120;-64
2023/01/04 02:44:51;;;;;;;0.40;0.40;;;4.60;99.90;;;;;;4427050;32;20824;-64
2023/01/04 02:45:21;;;;;;;0.40;0.40;;;4.60;99.90;;;;;;4423565;32;20150;-63
2023/01/04 02:50:39;;;;;;;0.30;0.30;;;4.60;99.90;;;;;;4437496;32;20065;-65
2023/01/04 02:53:11;;;;;;;0.60;0.60;;;4.70;99.90;;;;;;4440963;32;20092;-64
2023/01/04 02:56:01;;;;;;;0.62;0.62;;;4.70;99.90;;;;;;4437663;32;20061;-65
2023/01/04 02:59:07;;;;;;;0.93;0.93;;;4.80;99.90;;;;;;4437753;32;20069;-64
2023/01/04 03:06:14;;;;;;;0.30;0.30;;;4.80;99.90;;;;;;4439944;32;20101;-64
2023/01/04 03:07:46;;;;;;;0.40;0.40;;;4.80;99.90;;;;;;4441720;32;20141;-64
2023/01/04 03:10:34;;;;;;;0.50;0.50;;;4.80;99.90;;;;;;4434314;32;20099;-63
2023/01/04 03:13:09;;;;;;;0.40;0.40;;;4.80;99.90;;;;;;4424482;32;20157;-64
2023/01/04 03:15:38;;;;;;;0.37;0.37;;;4.80;99.90;;;;;;4434103;32;20052;-64
2023/01/04 03:18:28;;;;;;;0.30;0.30;;;4.80;99.90;;;;;;4442726;32;20085;-64
2023/01/04 03:20:57;;;;;;;0.50;0.50;;;4.70;99.90;;;;;;4440015;32;20052;-63
2023/01/04 03:35:27;;;;;;;0.40;0.40;;;4.80;99.90;;;;;;4439395;32;20089;-64
2023/01/04 03:48:50;;;;;;;3.53;1.62;;;4.70;99.90;;;;;;4438857;32;20478;-65
2023/01/04 03:49:40;;;;;;;0.30;0.30;;;4.70;99.90;;;;;;4440609;32;20116;-65
2023/01/04 03:52:08;;;;;;;0.40;0.40;;;4.60;99.90;;;;;;4440907;32;20076;-64
2023/01/04 03:54:38;;;;;;;0.50;0.50;;;4.60;99.90;;;;;;4438959;32;20089;-64
2023/01/04 03:57:06;;;;;;;0.40;0.40;;;4.60;99.90;;;;;;4442417;32;20135;-64
2023/01/04 03:59:38;;;;;;;0.40;0.40;;;4.50;99.90;;;;;;4441922;32;20081;-64
2023/01/04 04:02:06;;;;;;;0.43;0.43;;;4.50;99.90;;;;;;4441528;32;20526;-64
2023/01/04 04:08:33;;;;;;;0.40;0.40;;;4.60;99.90;;;;;;4438881;32;20185;-64
2023/01/04 04:10:03;;;;;;;0.30;0.30;;;4.60;99.90;;;;;;4435922;32;20088;-63
2023/01/04 04:12:29;;;;;;;0.40;0.40;;;4.60;99.90;;;;;;4425598;32;20081;-63
2023/01/04 04:14:55;;;;;;;0.40;0.40;;;4.60;99.90;;;;;;4430810;32;20084;-64
2023/01/04 04:17:21;;;;;;;0.50;0.50;;;4.60;99.90;;;;;;4442297;32;20061;-65
2023/01/04 04:19:46;;;;;;;0.30;0.30;;;4.60;99.90;;;;;;4441113;32;20093;-65
2023/01/04 04:22:11;;;;;;;0.57;0.57;;;4.60;99.90;;;;;;4441715;32;20073;-63
2023/01/04 04:24:37;;;;;;;0.40;0.40;;;4.60;99.90;;;;;;4442197;32;20586;-65
2023/01/04 04:27:02;;;;;;;0.50;0.50;;;4.60;99.90;;;;;;4442759;32;20498;-65
2023/01/04 04:29:28;;;;;;;0.40;0.40;;;4.50;99.90;;;;;;4441576;32;20065;-64
2023/01/04 04:31:53;;;;;;;0.40;0.40;;;4.50;99.90;;;;;;4440170;32;20182;-64
2023/01/04 04:34:19;;;;;;;0.35;0.35;;;4.40;99.90;;;;;;4441612;32;20434;-65
2023/01/04 04:36:45;;;;;;;0.43;0.43;;;4.50;99.90;;;;;;4443327;32;20105;-64
2023/01/04 04:39:11;;;;;;;0.50;0.50;;;4.50;99.90;;;;;;4442378;32;20069;-64
2023/01/04 04:41:38;;;;;;;0.30;0.30;;;4.40;99.90;;;;;;4429947;32;20163;-64
2023/01/04 04:44:07;;;;;;;0.52;0.52;;;4.40;99.90;;;;;;4425789;32;20060;-64
2023/01/04 04:46:32;;;;;;;0.47;0.47;;;4.40;99.90;;;;;;4440501;32;20140;-64
2023/01/04 04:48:58;;;;;;;0.40;0.40;;;4.40;99.90;;;;;;4441893;32;20069;-64
2023/01/04 04:51:23;;;;;;;0.50;0.50;;;4.40;99.90;;;;;;4440750;32;20069;-64
2023/01/04 04:53:49;;;;;;;2.85;1.48;;;4.40;99.90;;;;;;4442835;32;20480;-64
2023/01/04 04:56:14;;;;;;;0.40;0.40;;;4.40;99.90;;;;;;4443243;32;20061;-64
2023/01/04 04:58:40;;;;;;;0.40;0.40;;;4.50;99.90;;;;;;4445300;32;20555;-64
2023/01/04 05:01:06;;;;;;;0.30;0.30;;;4.50;99.90;;;;;;4445413;32;20122;-64
2023/01/04 05:03:32;;;;;;;0.60;0.60;;;4.50;99.90;;;;;;4443957;32;20065;-64
2023/01/04 05:05:58;;;;;;;0.50;0.50;;;4.60;99.90;;;;;;4445143;32;20642;-64
2023/01/04 05:08:24;;;;;;;0.30;0.30;;;4.60;99.90;;;;;;4442925;32;20155;-63
2023/01/04 05:10:49;;;;;;;0.65;0.62;;;4.70;99.90;;;;;;4434335;32;20073;-63
2023/01/04 05:13:14;;;;;;;0.30;0.30;;;4.70;99.90;;;;;;4429810;32;20177;-63
2023/01/04 05:15:44;;;;;;;0.40;0.40;;;4.80;99.90;;;;;;4439151;32;20089;-64
2023/01/04 05:18:11;;;;;;;8.48;0.73;;;4.80;99.90;;;;;;4441824;32;20426;-65
2023/01/04 05:20:37;;;;;;;0.40;0.40;;;4.90;99.90;;;;;;4445068;32;20084;-64
2023/01/04 05:23:03;;;;;;;0.50;0.50;;;4.90;99.90;;;;;;4406912;32;20134;-64
2023/01/04 05:25:29;;;;;;;0.47;0.47;;;5.00;99.90;;;;;;4407308;32;20591;-63
2023/01/04 05:31:21;;;;;;;0.35;0.35;;;5.20;99.90;;;;;;4406501;32;20516;-63
2023/01/04 05:33:06;;;;;;;0.40;0.40;;;5.20;99.90;;;;;;4400233;32;20483;-62
2023/01/04 05:35:32;;;;;;;0.47;0.47;;;5.30;99.90;;;;;;4411491;32;20085;-63
2023/01/04 05:37:58;;;;;;;0.75;0.47;;;5.20;99.90;;;;;;4427526;32;20085;-64
2023/01/04 05:40:23;;;;;;;0.40;0.40;;;5.30;99.90;;;;;;4434945;32;20064;-64
2023/01/04 05:42:49;;;;;;;1.12;0.77;;;5.30;99.90;;;;;;4427948;32;20127;-64
2023/01/04 05:45:16;;;;;;;0.60;0.60;;;5.40;99.90;;;;;;4434764;32;20721;-65
2023/01/04 05:47:42;;;;;;;0.30;0.30;;;5.50;99.90;;;;;;4442791;32;20148;-62
2023/01/04 05:50:09;;;;;;;0.40;0.40;;;5.50;99.90;;;;;;4443028;32;20042;-64
2023/01/04 05:52:35;;;;;;;0.43;0.43;;;5.50;99.90;;;;;;4423043;32;20764;-62
2023/01/04 05:55:00;;;;;;;0.32;0.32;;;5.60;99.90;;;;;;4403786;32;20162;-64
2023/01/04 05:57:26;;;;;;;0.40;0.40;;;5.60;99.90;;;;;;4424768;32;20549;-64
2023/01/04 05:59:51;;;;;;;0.80;0.80;;;5.60;99.90;;;;;;4433955;32;20148;-64
2023/01/04 06:02:19;;;;;;;0.52;0.52;;;5.70;99.90;;;;;;4421546;32;20121;-64
2023/01/04 06:04:45;;;;;;;0.37;0.37;;;5.70;99.90;;;;;;4407143;32;20102;-62
2023/01/04 06:07:11;;;;;;;0.40;0.40;;;5.70;99.90;;;;;;4401970;32;20385;-63
2023/01/04 06:09:37;;;;;;;1.10;1.05;;;5.70;99.90;;;;;;4396368;32;20058;-64
2023/01/04 06:12:03;;;;;;;3.25;0.77;;;5.70;99.90;;;;;;4378478;32;20100;-63
2023/01/04 06:14:28;;;;;;;0.52;0.52;;;5.80;99.90;;;;;;4377739;32;20284;-63
2023/01/04 06:16:54;;;;;;;1.27;0.90;;;5.80;99.90;;;;;;4390624;32;20121;-63
2023/01/04 06:19:19;;;;;;;0.68;0.68;;;5.80;99.90;;;;;;4351060;32;20655;-63
2023/01/04 06:21:45;;;;;;;0.75;0.75;;;5.90;99.90;;;;;;4357956;32;20194;-62
2023/01/04 06:24:11;;;;;;;0.30;0.30;;;5.90;99.90;;;;;;4328250;32;20178;-63
2023/01/04 06:26:36;;;;;;;0.30;0.30;;;5.90;99.90;;;;;;4344944;32;20176;-63
2023/01/04 06:29:03;;;;;;;0.32;0.32;;;6.00;99.90;;;;;;4345642;32;20226;-62
2023/01/04 06:31:28;;;;;;;3.95;1.52;;;5.90;99.90;;;;;;4322166;32;20496;-63
2023/01/04 06:33:55;;;;;;;0.40;0.40;;;5.90;99.90;;;;;;4358815;32;20235;-63
2023/01/04 06:36:21;;;;;;;0.75;0.75;;;5.90;99.90;;;;;;4361192;32;20659;-62
2023/01/04 06:38:48;;;;;;;0.55;0.55;;;5.90;99.90;;;;;;4370025;32;20182;-62
2023/01/04 06:41:13;;;;;;;0.40;0.40;;;6.00;99.90;;;;;;4357956;32;20227;-64
2023/01/04 06:43:39;;;;;;;0.47;0.47;;;6.00;99.90;;;;;;4360585;32;20275;-63
2023/01/04 06:46:05;;;;;;;0.30;0.30;;;6.00;99.90;;;;;;4375630;32;20113;-63
2023/01/04 06:48:30;;;;;;;0.62;0.62;;;6.10;99.90;;;;;;4379424;32;20122;-65
2023/01/04 06:50:56;;;;;;;0.40;0.40;;;6.10;99.90;;;;;;4377397;32;20839;-64
2023/01/04 06:53:21;;;;;;;0.50;0.50;;;6.10;99.90;;;;;;4368307;32;20639;-63
2023/01/04 06:55:47;;;;;;;0.37;0.37;;;6.20;99.90;;;;;;4378324;32;20109;-63
2023/01/04 06:58:12;;;;;;;1.70;0.70;;;6.20;99.90;;;;;;4380835;32;20313;-63
2023/01/04 07:00:38;;;;;;;0.40;0.40;;;6.30;99.90;;;;;;4366109;32;20293;-62
2023/01/04 07:03:03;;;;;;;0.40;0.40;;;6.30;99.90;;;;;;4374423;32;20567;-64
2023/01/04 07:05:29;;;;;;;0.57;0.57;;;6.40;99.90;;;;;;4373200;32;20097;-64
2023/01/04 07:07:54;;;;;;;0.40;0.40;;;6.40;99.90;;;;;;4381468;32;20117;-64
2023/01/04 07:10:20;;;;;;;0.90;0.55;;;6.50;99.90;;;;;;4386098;32;20154;-63
2023/01/04 07:12:45;;;;;;;3.10;0.62;;;6.50;99.90;;;;;;4384244;32;20130;-64
2023/01/04 07:15:11;;;;;;;3.00;2.05;;;6.60;99.90;;;;;;4387847;32;22675;-64
2023/01/04 07:17:37;;;;;;;0.35;0.35;;;6.60;99.90;;;;;;4399619;32;20081;-64
2023/01/04 07:20:03;;;;;;;0.30;0.30;;;6.60;99.90;;;;;;4387193;32;20186;-64
2023/01/04 07:22:29;;;;;;;2.75;0.98;;;6.60;99.90;;;;;;4377664;32;20125;-63
2023/01/04 07:24:54;;;;;;;0.43;0.43;;;6.50;99.90;;;;;;4391615;32;20096;-64
2023/01/04 07:27:20;;;;;;;0.45;0.45;;;6.50;99.90;;;;;;4388103;32;20552;-64
2023/01/04 07:29:45;;;;;;;0.45;0.45;;;6.50;99.90;;;;;;4373437;32;21382;-64
2023/01/04 07:32:11;;;;;;;0.70;0.70;;;6.40;99.90;;;;;;4376935;32;104284;-64
2023/01/04 07:34:38;;;;;;;1.33;1.12;;;6.40;99.90;;;;;;4370612;32;20122;-64
2023/01/04 07:37:05;;;;;;;0.32;0.32;;;6.40;99.90;;;;;;4384813;32;20647;-65
2023/01/04 07:39:31;;;;;;;0.62;0.62;;;6.40;99.90;;;;;;4390697;32;20343;-64
2023/01/04 07:41:56;;;;;;;0.35;0.35;;;6.40;99.90;;;;;;4389928;32;20117;-64
2023/01/04 07:44:24;;;;;;;0.50;0.50;;;6.50;99.90;;;;;;4391118;32;20104;-64
2023/01/04 07:46:49;;;;;;;0.60;0.60;;;6.50;99.90;;;;;;4392587;32;20109;-63
2023/01/04 07:49:17;;;;;;;0.50;0.50;;;6.40;99.90;;;;;;4381332;32;20328;-64
2023/01/04 07:51:43;;;;;;;0.30;0.30;;;6.40;99.90;;;;;;4373028;32;21018;-65
2023/01/04 07:54:11;;;;;;;0.30;0.30;;;6.40;99.90;;;;;;4374995;32;20092;-65
2023/01/04 07:56:36;;;;;;;0.68;0.68;;;6.50;99.90;;;;;;4385001;32;20209;-66
2023/01/04 07:59:05;;;;;;;0.40;0.40;;;6.40;99.90;;;;;;4370296;32;20287;-65
2023/01/04 08:01:34;;;;;;;0.35;0.35;;;6.40;99.90;;;;;;4365177;32;20108;-63
2023/01/04 08:04:00;;;;;;;0.40;0.40;;;6.40;99.90;;;;;;4378735;32;20351;-64
2023/01/04 08:06:26;;;;;;;0.60;0.60;;;6.40;99.90;;;;;;4377703;32;20118;-64
2023/01/04 08:08:51;;;;;;;0.40;0.40;;;6.40;99.90;;;;;;4389893;32;21021;-64
2023/01/04 08:11:21;;;;;;;0.65;0.65;;;6.40;99.90;;;;;;4385766;32;20107;-64
2023/01/04 08:13:47;;;;;;;0.40;0.40;;;6.40;99.90;;;;;;4381971;32;20726;-64
2023/01/04 08:16:20;;;;;;;0.60;0.60;;;6.40;99.90;;;;;;4384087;32;20084;-63
2023/01/04 08:18:47;;;;;;;0.45;0.45;;;6.40;99.90;;;;;;4372511;32;20843;-64
2023/01/04 08:21:13;;;;;;;0.43;0.43;;;6.40;99.90;;;;;;4374259;32;20893;-63
2023/01/04 08:23:38;;;;;;;0.57;0.57;;;6.50;99.90;;;;;;4375620;32;20120;-63
2023/01/04 08:26:06;;;;;;;0.60;0.55;;;6.50;99.90;;;;;;4385638;32;20486;-63
2023/01/04 08:28:33;;;;;;;0.30;0.30;;;6.50;99.90;;;;;;4386426;32;20864;-63
2023/01/04 08:31:03;;;;;;;1.20;0.95;;;6.50;99.90;;;;;;4359861;32;21241;-64
2023/01/04 08:33:29;;;;;;;0.50;0.50;;;6.50;99.90;;;;;;4343660;32;20335;-63
2023/01/04 08:36:06;;;;;;;0.40;0.40;;;6.60;99.90;;;;;;4356680;32;20104;-62
2023/01/04 08:38:32;;;;;;;0.30;0.30;;;6.60;99.90;;;;;;4383758;32;20494;-62
2023/01/04 08:40:57;;;;;;;0.40;0.40;;;6.60;99.90;;;;;;4389309;32;20238;-61
2023/01/04 08:43:23;;;;;;;0.50;0.50;;;6.60;99.90;;;;;;4389913;32;20804;-63
2023/01/04 08:45:48;;;;;;;0.30;0.30;;;6.60;99.90;;;;;;4385805;32;20085;-62
2023/01/04 08:48:14;;;;;;;1.02;0.95;;;6.60;99.90;;;;;;4368654;32;20198;-61
2023/01/04 08:50:39;;;;;;;0.20;0.20;;;6.70;99.90;;;;;;4360162;32;20144;-62
2023/01/04 08:53:06;;;;;;;0.30;0.30;;;6.70;99.90;;;;;;4347611;32;20478;-62
2023/01/04 08:55:31;;;;;;;0.30;0.30;;;6.80;99.90;;;;;;4377411;32;20197;-62
2023/01/04 08:57:59;;;;;;;0.40;0.40;;;6.70;99.90;;;;;;4384033;32;20096;-62
2023/01/04 09:00:24;;;;;;;0.37;0.37;;;6.70;99.90;;;;;;4377739;32;20172;-62
2023/01/04 09:02:51;;;;;;;0.30;0.30;;;6.80;99.90;;;;;;4357702;32;21353;-62
2023/01/04 09:05:17;;;;;;;0.30;0.30;;;6.80;99.90;;;;;;4369984;32;20310;-63
2023/01/04 09:07:42;;;;;;;0.30;0.30;;;6.80;99.90;;;;;;4384466;32;21644;-63
2023/01/04 09:10:08;;;;;;;0.40;0.40;;;6.80;99.90;;;;;;4381034;32;20096;-62
2023/01/04 09:12:33;;;;;;;0.40;0.40;;;6.80;99.90;;;;;;4392723;32;20138;-62
2023/01/04 09:14:59;;;;;;;0.50;0.50;;;6.80;99.90;;;;;;4383846;32;20824;-61
2023/01/04 09:17:24;;;;;;;0.30;0.30;;;6.80;99.90;;;;;;4384500;32;20121;-62
2023/01/04 09:19:50;;;;;;;0.30;0.30;;;6.80;99.90;;;;;;4373239;32;20080;-62
2023/01/04 09:22:15;;;;;;;0.30;0.30;;;6.80;99.90;;;;;;4367242;32;20316;-62
2023/01/04 09:24:41;;;;;;;0.40;0.40;;;6.80;99.90;;;;;;4377129;32;20125;-62
2023/01/04 09:27:06;;;;;;;0.50;0.50;;;6.80;99.90;;;;;;4387480;32;20134;-63
2023/01/04 09:29:32;;;;;;;0.40;0.40;;;6.80;99.90;;;;;;4366796;32;20386;-62
2023/01/04 09:31:57;;;;;;;0.40;0.40;;;6.80;99.90;;;;;;4366524;32;21656;-62
2023/01/04 09:34:23;;;;;;;0.30;0.30;;;6.80;99.90;;;;;;4361259;32;20229;-62
2023/01/04 09:36:48;;;;;;;0.37;0.37;;;6.80;99.90;;;;;;4376867;32;21229;-62
2023/01/04 09:39:14;;;;;;;0.50;0.50;;;6.90;99.90;;;;;;4378179;32;20171;-61
2023/01/04 09:41:58;;;;;;;0.20;0.20;;;6.90;99.90;;;;;;4382731;32;20476;-62
2023/01/04 09:44:38;;;;;;;0.70;0.70;;;6.90;99.90;;;;;;4392449;32;21029;-61
2023/01/04 09:47:10;;;;;;;0.65;0.50;;;7.00;99.90;;;;;;4390237;32;20469;-62
2023/01/04 09:49:42;;;;;;;0.50;0.50;;;7.00;99.90;;;;;;4375827;32;20160;-62
2023/01/04 09:52:12;;;;;;;0.45;0.45;;;7.00;99.90;;;;;;4373813;32;20664;-61
2023/01/04 09:54:46;;;;;;;0.47;0.47;;;7.00;99.90;;;;;;4376828;32;20108;-62
2023/01/04 09:57:22;;;;;;;0.55;0.55;;;7.00;99.90;;;;;;4384773;32;20212;-61
2023/01/04 09:59:53;;;;;;;0.30;0.30;;;7.00;99.90;;;;;;4374242;32;20430;-63
2023/01/04 10:02:27;;;;;;;0.95;0.65;;;7.00;99.90;;;;;;4373454;32;20170;-63
2023/01/04 10:04:53;;;;;;;0.88;0.62;;;7.00;99.90;;;;;;4362182;32;20097;-66
2023/01/04 10:07:25;;;;;;;0.43;0.43;;;7.00;99.90;;;;;;4379772;32;21054;-67
2023/01/04 10:09:50;;;;;;;0.47;0.47;;;7.00;99.90;;;;;;4385928;32;20239;-63
2023/01/04 10:12:44;;;;;;;0.30;0.30;;;7.10;99.90;;;;;;4380506;32;20109;-65
2023/01/04 10:15:31;;;;;;;0.30;0.30;;;7.10;99.90;;;;;;4385722;32;20120;-63
2023/01/04 10:18:26;;;;;;;0.47;0.47;;;7.10;99.90;;;;;;4377941;32;20876;-63
2023/01/04 10:21:10;;;;;;;0.62;0.62;;;7.10;99.90;;;;;;4358807;32;21045;-64
2023/01/04 10:24:05;;;;;;;0.57;0.55;;;7.10;99.90;;;;;;4359185;32;20433;-64
2023/01/04 10:26:42;;;;;;;0.37;0.37;;;7.10;99.90;;;;;;4366150;32;20181;-64
2023/01/04 10:29:37;;;;;;;1.35;0.98;;;7.10;99.90;;;;;;4368250;32;20293;-63
2023/01/04 10:32:13;;;;;;;0.32;0.32;;;7.20;99.90;;;;;;4354402;32;20270;-63
2023/01/04 10:34:43;;;;;;;0.30;0.30;;;7.20;99.90;;;;;;4363555;32;20132;-64
2023/01/04 10:37:17;;;;;;;0.30;0.30;;;7.20;99.90;;;;;;4389082;32;21540;-65
2023/01/04 10:39:44;;;;;;;0.50;0.50;;;7.20;99.90;;;;;;4388343;32;20228;-64
2023/01/04 10:42:32;;;;;;;0.40;0.40;;;7.20;99.90;;;;;;4383627;32;20627;-64
2023/01/04 10:45:22;;;;;;;0.30;0.30;;;7.20;99.90;;;;;;4383901;32;20151;-65
2023/01/04 10:48:14;;;;;;;1.40;0.93;;;7.20;99.90;;;;;;4382352;32;20093;-63
2023/01/04 10:50:52;;;;;;;0.30;0.30;;;7.20;99.90;;;;;;4374968;32;20416;-64
2023/01/04 10:53:43;;;;;;;0.40;0.40;;;7.20;99.90;;;;;;4360916;32;20991;-64
2023/01/04 10:56:31;;;;;;;0.50;0.50;;;7.30;99.90;;;;;;4388650;32;20236;-65
2023/01/04 10:59:09;;;;;;;0.40;0.40;;;7.30;99.90;;;;;;4381170;32;20804;-65
2023/01/04 11:01:42;;;;;;;0.37;0.37;;;7.30;99.90;;;;;;4361639;32;20201;-65
2023/01/04 11:04:17;;;;;;;0.32;0.32;;;7.30;99.90;;;;;;4359936;32;20157;-65
2023/01/04 11:06:52;;;;;;;0.30;0.30;;;7.30;99.90;;;;;;4381647;32;20096;-65
2023/01/04 11:09:26;;;;;;;3.85;1.23;;;7.40;99.90;;;;;;4383799;32;20109;-64
2023/01/04 11:11:55;;;;;;;0.32;0.32;;;7.40;99.90;;;;;;4386274;32;20181;-65
2023/01/04 11:14:21;;;;;;;0.30;0.30;;;7.40;99.90;;;;;;4385618;32;21079;-65
2023/01/04 11:16:51;;;;;;;0.30;0.30;;;7.50;99.90;;;;;;4379149;32;20108;-63
2023/01/04 11:19:16;;;;;;;0.37;0.37;;;7.50;99.90;;;;;;4359253;32;20529;-64
2023/01/04 11:21:49;;;;;;;0.40;0.40;;;7.50;99.90;;;;;;4360810;32;22444;-64
2023/01/04 11:24:15;;;;;;;0.40;0.40;;;7.60;99.90;;;;;;4383397;32;20616;-63
2023/01/04 11:26:44;;;;;;;0.47;0.47;;;7.60;99.90;;;;;;4387051;32;20088;-65
2023/01/04 11:29:31;;;;;;;0.30;0.30;;;7.60;99.90;;;;;;4390556;32;20734;-65
2023/01/04 11:32:01;;;;;;;0.70;0.32;;;7.60;99.90;;;;;;4375952;32;20680;-64
2023/01/04 11:34:45;;;;;;;0.77;0.77;;;7.70;99.90;;;;;;4373726;32;20117;-65
2023/01/04 11:37:24;;;;;;;0.40;0.40;;;7.70;99.90;;;;;;4395478;32;20102;-65
2023/01/04 11:39:49;;;;;;;0.40;0.40;;;7.70;99.90;;;;;;4395487;32;22084;-65
2023/01/04 11:42:22;;;;;;;0.37;0.37;;;7.80;99.90;;;;;;4397873;32;20323;-65
2023/01/04 11:44:57;;;;;;;0.30;0.30;;;7.80;99.90;;;;;;4396593;32;20064;-65
2023/01/04 11:47:24;;;;;;;0.40;0.40;;;7.80;99.90;;;;;;4398743;32;20089;-65
2023/01/04 11:49:50;;;;;;;0.37;0.37;;;7.80;99.90;;;;;;4372742;32;21189;-65
2023/01/04 11:52:36;;;;;;;1.65;0.62;;;7.90;99.90;;;;;;4365514;32;21075;-65
2023/01/04 11:55:24;;;;;;;0.45;0.45;;;7.90;99.90;;;;;;4362092;32;20475;-65
2023/01/04 11:58:13;;;;;;;0.47;0.47;;;7.90;99.90;;;;;;4373665;32;20215;-65
2023/01/04 12:00:52;;;;;;;0.40;0.40;;;7.90;99.90;;;;;;4352171;32;20308;-63
2023/01/04 12:03:26;;;;;;;0.35;0.35;;;7.90;99.90;;;;;;4349339;32;20367;-65
2023/01/04 12:05:51;;;;;;;0.40;0.40;;;8.00;99.90;;;;;;4357660;32;20185;-65
2023/01/04 12:08:29;;;;;;;1.25;0.60;;;8.00;99.90;;;;;;4373011;32;20113;-65
2023/01/04 12:10:55;;;;;;;0.43;0.43;;;8.10;99.90;;;;;;4373527;32;20361;-65
2023/01/04 12:13:21;;;;;;;0.52;0.52;;;8.10;99.90;;;;;;4366305;32;20815;-65
2023/01/04 12:16:03;;;;;;;0.30;0.30;;;8.10;99.90;;;;;;4374143;32;20160;-65
2023/01/04 12:18:35;;;;;;;0.40;0.40;;;8.10;99.90;;;;;;4370988;32;20096;-65
2023/01/04 12:21:01;;;;;;;0.30;0.30;;;8.10;99.90;;;;;;4360132;32;22659;-65
2023/01/04 12:23:27;;;;;;;0.40;0.40;;;8.10;99.90;;;;;;4376428;32;20280;-65
2023/01/04 12:25:54;;;;;;;1.75;0.95;;;8.10;99.90;;;;;;4381554;32;20224;-66
2023/01/04 12:28:32;;;;;;;0.35;0.35;;;8.10;99.90;;;;;;4383552;32;20213;-65
2023/01/04 12:31:19;;;;;;;0.62;0.45;;;8.20;99.90;;;;;;4361394;32;20110;-65
2023/01/04 12:33:47;;;;;;;0.37;0.37;;;8.10;99.90;;;;;;4365707;32;20516;-65
2023/01/04 12:36:15;;;;;;;0.40;0.40;;;8.10;99.90;;;;;;4380709;32;20144;-66
2023/01/04 12:39:04;;;;;;;0.50;0.50;;;8.10;99.90;;;;;;4383322;32;20488;-65
2023/01/04 12:41:35;;;;;;;0.43;0.43;;;8.10;99.90;;;;;;4366485;32;20952;-65
2023/01/04 12:44:02;;;;;;;0.68;0.45;;;8.10;99.90;;;;;;4354953;32;20259;-66
2023/01/04 12:49:03;;;;;;;0.40;0.40;;;8.10;99.90;;;;;;4375556;32;20611;-67
2023/01/04 12:49:26;;;;;;;0.40;0.40;;;8.10;99.90;;;;;;4376360;32;20342;-67
2023/01/04 12:52:10;;;;;;;0.37;0.37;;;8.10;99.90;;;;;;4375216;32;20122;-67
2023/01/04 12:55:00;;;;;;;0.60;0.60;;;8.00;99.90;;;;;;4380435;32;20105;-66
2023/01/04 12:57:35;;;;;;;0.40;0.40;;;8.00;99.90;;;;;;4389293;32;21139;-68
2023/01/04 13:00:16;;;;;;;3.03;1.27;;;8.00;99.90;;;;;;4386058;32;20292;-67
2023/01/04 13:02:42;;;;;;;;;;;8.00;99.90;;;;;;4365880;32;20369;-68
2023/01/04 13:05:18;;;;;;;0.50;0.50;;;8.00;99.90;;;;;;4363637;32;19990;-68
2023/01/04 13:07:46;;;;;;;0.30;0.30;;;8.00;99.90;;;;;;4395348;32;20178;-68
2023/01/04 13:10:33;;;;;;;0.40;0.40;;;8.00;99.90;;;;;;4393216;32;20281;-68
2023/01/04 13:13:19;;;;;;;0.28;0.28;;;8.00;99.90;;;;;;4386071;32;20434;-68
2023/01/04 13:15:52;;;;;;;0.43;0.43;;;8.00;99.90;;;;;;4379451;32;20175;-68
2023/01/04 13:18:46;;;;;;;0.30;0.30;;;8.00;99.90;;;;;;4387898;32;20150;-67
2023/01/04 13:21:19;;;;;;;0.40;0.40;;;8.00;99.90;;;;;;4375285;32;20960;-68
2023/01/04 13:23:51;;;;;;;1.30;1.20;;;8.10;99.90;;;;;;4381797;32;20678;-68
2023/01/04 13:26:38;;;;;;;0.37;0.37;;;8.10;99.90;;;;;;4385266;32;21036;-68
2023/01/04 13:29:12;;;;;;;0.30;0.30;;;8.10;99.90;;;;;;4388302;32;20271;-68
2023/01/04 13:31:49;;;;;;;0.45;0.45;;;8.10;99.90;;;;;;4349420;32;20278;-67
2023/01/04 13:34:18;;;;;;;0.50;0.50;;;8.10;99.90;;;;;;4336661;32;20177;-67
2023/01/04 13:36:53;;;;;;;0.60;0.55;;;8.10;99.90;;;;;;4367678;32;20096;-66
2023/01/04 13:39:20;;;;;;;0.43;0.43;;;8.10;99.90;;;;;;4377375;32;20506;-66
2023/01/04 13:41:47;;;;;;;0.40;0.40;;;8.10;99.90;;;;;;4392358;32;20785;-66
2023/01/04 13:44:25;;;;;;;0.30;0.30;;;8.20;99.90;;;;;;4389650;32;20569;-67
2023/01/04 13:46:53;;;;;;;1.60;0.47;;;8.20;99.90;;;;;;4397080;32;20096;-66
2023/01/04 13:49:19;;;;;;;0.40;0.40;;;8.20;99.90;;;;;;4384457;32;20498;-66